createdAt,value
2022-10-26T00:02:45.550Z,100710.44
2022-10-26T00:06:47.216Z,100698.69
2022-10-26T00:10:49.112Z,100707.16
2022-10-26T00:14:50.734Z,100706.19
2022-10-26T00:18:52.766Z,100714.28
2022-10-26T00:22:54.603Z,100710.16
2022-10-26T00:26:56.384Z,100704.16
2022-10-26T00:31:07.454Z,100715.31
2022-10-26T00:35:21.301Z,100699.94
2022-10-26T00:39:25.903Z,100694.13
2022-10-26T00:43:27.659Z,100701.50
2022-10-26T00:47:46.730Z,100702.84
2022-10-26T00:51:52.060Z,100696.16
2022-10-26T00:55:54.348Z,100707.38
2022-10-26T00:59:58.073Z,100706.47
2022-10-26T01:04:00.718Z,100704.56
2022-10-26T01:08:03.379Z,100699.19
2022-10-26T01:12:05.458Z,100694.38
2022-10-26T01:16:26.611Z,100683.94
2022-10-26T01:20:44.047Z,100689.28
2022-10-26T01:24:55.114Z,100697.63
2022-10-26T01:29:49.562Z,100693.19
2022-10-26T01:34:04.572Z,100699.19
2022-10-26T01:38:14.576Z,100698.13
2022-10-26T01:42:18.325Z,100691.53
2022-10-26T01:46:23.910Z,100693.81
2022-10-26T01:50:26.857Z,100698.28
2022-10-26T01:54:29.350Z,100686.16
2022-10-26T01:59:07.207Z,100690.44
2022-10-26T02:03:38.853Z,100691.78
2022-10-26T02:08:26.209Z,100699.28
2022-10-26T02:12:38.669Z,100709.31
2022-10-26T02:16:56.204Z,100715.28
2022-10-26T02:21:13.988Z,100718.34
2022-10-26T02:25:20.519Z,100718.44
2022-10-26T02:29:25.171Z,100724.00
2022-10-26T02:33:30.529Z,100733.44
2022-10-26T02:37:34.460Z,100739.94
2022-10-26T02:41:39.839Z,100740.66
2022-10-26T02:45:46.660Z,100742.16
2022-10-26T02:49:48.556Z,100745.78
2022-10-26T02:53:58.144Z,100745.66
2022-10-26T02:58:06.596Z,100743.38
2022-10-26T03:02:08.728Z,100739.47
2022-10-26T03:06:10.665Z,100751.75
2022-10-26T03:10:12.295Z,100750.84
2022-10-26T03:14:14.213Z,100760.25
2022-10-26T03:18:17.021Z,100753.88
2022-10-26T03:22:19.073Z,100759.94
2022-10-26T03:26:20.674Z,100759.22
2022-10-26T03:30:22.561Z,100757.59
2022-10-26T03:34:24.262Z,100754.97
2022-10-26T03:38:26.134Z,100759.53
2022-10-26T03:42:28.027Z,100757.31
2022-10-26T03:46:29.789Z,100760.47
2022-10-26T03:50:31.439Z,100769.16
2022-10-26T03:54:33.482Z,100772.34
2022-10-26T03:58:35.088Z,100774.75
2022-10-26T04:02:36.999Z,100777.28
2022-10-26T04:06:38.689Z,100773.84
2022-10-26T04:10:40.536Z,100762.50
2022-10-26T04:14:42.297Z,100756.59
2022-10-26T04:18:44.399Z,100767.94
2022-10-26T04:22:46.037Z,100768.97
2022-10-26T04:26:47.847Z,100766.56
2022-10-26T04:30:49.546Z,100760.31
2022-10-26T04:34:54.219Z,100765.22
2022-10-26T04:38:55.866Z,100770.00
2022-10-26T04:42:58.099Z,100774.69
2022-10-26T04:46:59.731Z,100780.22
2022-10-26T04:51:01.722Z,100773.34
2022-10-26T04:55:06.123Z,100782.50
2022-10-26T04:59:08.023Z,100794.00
2022-10-26T05:03:09.755Z,100785.63
2022-10-26T05:07:11.567Z,100787.94
2022-10-26T05:11:13.282Z,100790.88
2022-10-26T05:15:15.271Z,100805.13
2022-10-26T05:19:17.162Z,100802.97
2022-10-26T05:23:19.119Z,100820.44
2022-10-26T05:27:20.861Z,100813.81
2022-10-26T05:31:22.788Z,100817.06
2022-10-26T05:35:25.911Z,100829.03
2022-10-26T05:39:27.750Z,100828.84
2022-10-26T05:43:30.336Z,100824.81
2022-10-26T05:47:32.196Z,100832.34
2022-10-26T05:51:37.325Z,100832.50
2022-10-26T05:55:39.809Z,100828.31
2022-10-26T05:59:41.739Z,100833.06
2022-10-26T06:03:51.496Z,100831.78
2022-10-26T06:07:53.646Z,100838.22
2022-10-26T06:11:55.849Z,100840.91
2022-10-26T06:16:25.303Z,100843.41
2022-10-26T06:20:39.895Z,100844.81
2022-10-26T06:24:56.117Z,100847.69
2022-10-26T06:29:12.913Z,100849.06
2022-10-26T06:33:28.962Z,100856.53
2022-10-26T06:37:32.282Z,100863.03
2022-10-26T06:41:35.614Z,100859.56
2022-10-26T06:45:39.170Z,100867.69
2022-10-26T06:49:53.601Z,100878.63
2022-10-26T06:54:14.111Z,100884.00
2022-10-26T06:58:20.891Z,100882.00
2022-10-26T07:02:23.277Z,100882.53
2022-10-26T07:06:25.460Z,100887.41
2022-10-26T07:10:27.398Z,100884.53
2022-10-26T07:14:29.049Z,100898.34
2022-10-26T07:18:30.959Z,100898.06
2022-10-26T07:22:33.617Z,100899.00
2022-10-26T07:26:35.513Z,100905.31
2022-10-26T07:30:39.357Z,100913.78
2022-10-26T07:34:41.444Z,100918.00
2022-10-26T07:38:43.065Z,100918.16
2022-10-26T07:42:47.663Z,100924.75
2022-10-26T07:46:49.854Z,100937.34
2022-10-26T07:50:51.863Z,100932.94
2022-10-26T07:54:53.582Z,100933.25
2022-10-26T07:58:55.753Z,100925.81
2022-10-26T08:16:57.710Z,100920.91
2022-10-26T08:21:11.475Z,100928.91
2022-10-26T08:25:17.555Z,100930.47
2022-10-26T08:29:22.373Z,100928.38
2022-10-26T08:33:24.892Z,100924.25
2022-10-26T08:37:27.422Z,100931.75
2022-10-26T08:41:36.377Z,100937.16
2022-10-26T08:46:22.052Z,100940.91
2022-10-26T08:50:41.998Z,100949.56
2022-10-26T08:54:53.036Z,100958.44
2022-10-26T08:59:03.244Z,100961.03
2022-10-26T09:03:13.236Z,100962.97
2022-10-26T09:07:34.624Z,100966.66
2022-10-26T09:11:48.462Z,100961.03
2022-10-26T09:16:12.068Z,100973.00
2022-10-26T09:20:38.497Z,100976.28
2022-10-26T09:24:52.284Z,100981.94
2022-10-26T09:28:56.213Z,100973.28
2022-10-26T09:33:02.426Z,100979.78
2022-10-26T09:37:16.837Z,100993.06
2022-10-26T09:41:40.283Z,101004.84
2022-10-26T09:45:47.242Z,101007.00
2022-10-26T09:49:54.612Z,101005.09
2022-10-26T09:53:57.891Z,101011.06
2022-10-26T09:58:03.901Z,101004.81
2022-10-26T10:02:39.997Z,101010.84
2022-10-26T10:06:47.043Z,101005.66
2022-10-26T10:10:56.069Z,101005.75
2022-10-26T10:14:59.569Z,101007.56
2022-10-26T10:19:01.739Z,101021.16
2022-10-26T10:23:04.808Z,101021.59
2022-10-26T10:27:18.498Z,101027.47
2022-10-26T10:31:26.895Z,101032.09
2022-10-26T10:35:29.864Z,101025.31
2022-10-26T10:39:40.835Z,101030.69
2022-10-26T10:43:47.097Z,101040.66
2022-10-26T10:48:05.655Z,101041.31
2022-10-26T10:52:07.334Z,101034.44
2022-10-26T10:56:27.851Z,101037.56
2022-10-26T11:00:34.377Z,101029.97
2022-10-26T11:05:27.143Z,101034.66
2022-10-26T11:09:33.425Z,101034.81
2022-10-26T11:13:44.329Z,101034.19
2022-10-26T11:18:07.520Z,101034.81
2022-10-26T11:22:22.473Z,101037.81
2022-10-26T11:26:35.433Z,101033.38
2022-10-26T11:30:43.581Z,101048.03
2022-10-26T11:35:00.151Z,101052.25
2022-10-26T11:39:14.638Z,101045.13
2022-10-26T11:43:25.239Z,101044.72
2022-10-26T11:47:39.791Z,101050.47
2022-10-26T11:51:46.740Z,101042.66
2022-10-26T11:55:54.552Z,101042.19
2022-10-26T12:00:09.349Z,101040.47
2022-10-26T12:04:11.842Z,101027.38
2022-10-26T12:08:24.266Z,101042.25
2022-10-26T12:12:37.482Z,101049.13
2022-10-26T12:17:11.636Z,101039.09
2022-10-26T12:21:15.106Z,101035.31
2022-10-26T12:25:16.753Z,101037.34
2022-10-26T12:29:27.886Z,101044.25
2022-10-26T12:33:30.703Z,101061.66
2022-10-26T12:37:37.318Z,101053.72
2022-10-26T12:41:39.307Z,101064.28
2022-10-26T12:45:43.000Z,101075.41
2022-10-26T12:50:07.850Z,101075.56
2022-10-26T12:54:41.832Z,101087.59
2022-10-26T12:59:05.183Z,101067.91
2022-10-26T13:03:32.802Z,101063.75
2022-10-26T13:07:41.367Z,101062.09
2022-10-26T13:11:46.152Z,101058.19
2022-10-26T13:15:56.717Z,101058.78
2022-10-26T13:20:02.396Z,101069.44
2022-10-26T13:24:08.330Z,101072.19
2022-10-26T13:28:53.741Z,101068.91
2022-10-26T13:32:56.646Z,101067.09
2022-10-26T13:37:05.322Z,101076.44
2022-10-26T13:41:12.183Z,101077.66
2022-10-26T13:45:18.565Z,101081.81
2022-10-26T13:49:35.631Z,101073.59
2022-10-26T13:53:54.246Z,101088.66
2022-10-26T13:58:21.687Z,101101.72
2022-10-26T14:02:28.185Z,101102.78
2022-10-26T14:06:37.706Z,101098.94
2022-10-26T14:10:42.285Z,101087.63
2022-10-26T14:14:44.064Z,101086.94
2022-10-26T14:18:48.643Z,101071.03
2022-10-26T14:22:50.673Z,101072.94
2022-10-26T14:26:52.633Z,101068.38
2022-10-26T14:30:54.725Z,101071.78
2022-10-26T14:34:57.002Z,101078.63
2022-10-26T14:39:07.006Z,101069.09
2022-10-26T14:43:21.287Z,101054.28
2022-10-26T14:47:28.537Z,101055.22
2022-10-26T14:51:35.602Z,101056.81
2022-10-26T14:55:48.681Z,101062.59
2022-10-26T15:00:01.107Z,101064.97
2022-10-26T15:04:07.510Z,101066.50
2022-10-26T15:08:52.216Z,101072.91
2022-10-26T15:12:57.880Z,101081.25
2022-10-26T15:17:00.668Z,101086.75
2022-10-26T15:21:02.810Z,101093.13
2022-10-26T15:25:06.227Z,101095.16
2022-10-26T15:29:41.557Z,101102.78
2022-10-26T15:34:03.577Z,101119.16
2022-10-26T15:38:05.324Z,101129.06
2022-10-26T15:42:13.607Z,101131.53
2022-10-26T15:46:16.005Z,101128.75
2022-10-26T15:50:23.225Z,101128.47
2022-10-26T15:54:25.034Z,101134.84
2022-10-26T15:58:29.583Z,101137.66
2022-10-26T16:02:31.344Z,101141.00
2022-10-26T16:06:36.349Z,101147.97
2022-10-26T16:10:38.320Z,101147.00
2022-10-26T16:15:04.971Z,101152.13
2022-10-26T16:19:25.364Z,101159.50
2022-10-26T16:23:24.019Z,101157.75
2022-10-26T16:27:25.779Z,101163.34
2022-10-26T16:31:27.669Z,101171.19
2022-10-26T16:35:29.369Z,101177.28
2022-10-26T16:39:31.228Z,101180.19
2022-10-26T16:43:37.687Z,101185.03
2022-10-26T16:47:40.278Z,101180.56
2022-10-26T16:51:41.995Z,101193.63
2022-10-26T16:55:44.335Z,101188.91
2022-10-26T16:59:46.272Z,101193.72
2022-10-26T17:03:49.717Z,101188.91
2022-10-26T17:07:51.632Z,101179.81
2022-10-26T17:11:57.172Z,101189.91
2022-10-26T17:16:06.895Z,101186.50
2022-10-26T17:20:09.437Z,101190.41
2022-10-26T17:24:13.577Z,101187.13
2022-10-26T17:28:15.451Z,101190.53
2022-10-26T17:32:17.116Z,101194.16
2022-10-26T17:36:21.263Z,101200.31
2022-10-26T17:40:23.048Z,101198.50
2022-10-26T17:44:24.903Z,101204.50
2022-10-26T17:48:27.710Z,101214.59
2022-10-26T17:52:29.722Z,101215.28
2022-10-26T17:56:33.273Z,101214.44
2022-10-26T18:00:35.238Z,101204.88
2022-10-26T18:04:36.908Z,101208.22
2022-10-26T18:08:39.676Z,101211.88
2022-10-26T18:12:41.317Z,101224.34
2022-10-26T18:16:43.177Z,101229.66
2022-10-26T18:20:44.835Z,101230.88
2022-10-26T18:24:46.736Z,101230.25
2022-10-26T18:28:49.003Z,101238.97
2022-10-26T18:32:51.939Z,101241.81
2022-10-26T18:36:54.187Z,101241.31
2022-10-26T18:40:56.476Z,101245.63
2022-10-26T18:45:01.240Z,101248.19
2022-10-26T18:49:05.267Z,101258.13
2022-10-26T18:53:12.618Z,101256.38
2022-10-26T18:57:14.513Z,101252.34
2022-10-26T19:01:18.725Z,101261.19
2022-10-26T19:05:20.734Z,101276.97
2022-10-26T19:09:22.463Z,101275.56
2022-10-26T19:13:24.483Z,101279.19
2022-10-26T19:17:26.180Z,101283.06
2022-10-26T19:21:29.600Z,101285.50
2022-10-26T19:25:31.243Z,101291.00
2022-10-26T19:29:33.110Z,101301.34
2022-10-26T19:33:34.940Z,101307.53
2022-10-26T19:37:36.914Z,101313.50
2022-10-26T19:41:38.595Z,101319.94
2022-10-26T19:45:41.106Z,101324.66
2022-10-26T19:49:42.931Z,101337.69
2022-10-26T19:53:45.150Z,101350.47
2022-10-26T19:57:46.831Z,101351.53
2022-10-26T20:01:48.900Z,101353.59
2022-10-26T20:05:50.677Z,101363.47
2022-10-26T20:09:52.511Z,101362.03
2022-10-26T20:13:56.301Z,101359.91
2022-10-26T20:17:58.623Z,101368.03
2022-10-26T20:22:00.253Z,101364.16
2022-10-26T20:26:03.329Z,101362.91
2022-10-26T20:30:05.423Z,101361.84
2022-10-26T20:34:07.322Z,101366.81
2022-10-26T20:38:16.753Z,101372.50
2022-10-26T20:42:26.731Z,101363.09
2022-10-26T20:46:29.212Z,101358.91
2022-10-26T20:50:31.608Z,101362.06
2022-10-26T20:54:51.999Z,101367.09
2022-10-26T20:58:58.871Z,101370.44
2022-10-26T21:03:00.720Z,101375.59
2022-10-26T21:07:02.629Z,101375.66
2022-10-26T21:11:04.340Z,101381.88
2022-10-26T21:15:06.937Z,101374.13
2022-10-26T21:19:08.672Z,101394.28
2022-10-26T21:23:10.557Z,101391.69
2022-10-26T21:27:12.177Z,101380.50
2022-10-26T21:31:16.502Z,101372.19
2022-10-26T21:35:18.332Z,101374.31
2022-10-26T21:39:20.201Z,101370.91
2022-10-26T21:43:21.933Z,101374.59
2022-10-26T21:47:23.784Z,101394.47
2022-10-26T21:51:25.564Z,101404.97
2022-10-26T21:55:27.422Z,101413.66
2022-10-26T21:59:29.021Z,101419.06
2022-10-26T22:03:31.192Z,101407.34
2022-10-26T22:07:32.950Z,101396.94
2022-10-26T22:11:34.842Z,101395.06
2022-10-26T22:15:37.031Z,101401.34
2022-10-26T22:19:38.981Z,101396.72
2022-10-26T22:23:41.960Z,101399.13
2022-10-26T22:27:43.749Z,101393.94
2022-10-26T22:31:45.350Z,101401.69
2022-10-26T22:35:47.110Z,101397.19
2022-10-26T22:39:49.013Z,101413.09
2022-10-26T22:43:51.147Z,101409.69
2022-10-26T22:47:52.760Z,101414.81
2022-10-26T22:51:54.760Z,101417.81
2022-10-26T22:55:56.617Z,101427.84
2022-10-26T22:59:58.476Z,101417.56
2022-10-26T23:04:00.403Z,101406.38
2022-10-26T23:08:03.867Z,101408.75
2022-10-26T23:12:05.665Z,101390.44
2022-10-26T23:16:20.493Z,101389.50
2022-10-26T23:20:22.102Z,101395.91
2022-10-26T23:24:23.905Z,101410.75
2022-10-26T23:28:25.647Z,101411.56
2022-10-26T23:32:27.553Z,101407.44
2022-10-26T23:36:29.151Z,101413.41
2022-10-26T23:40:31.071Z,101417.28
2022-10-26T23:44:32.703Z,101424.09
2022-10-26T23:48:34.552Z,101419.06
2022-10-26T23:52:36.339Z,101427.97
2022-10-26T23:56:38.178Z,101431.56
